Danubia — A8HZ9 — position and weather

sailwx.info

Track history (hours):
 
Tides and Currents Weather Stations Pressure Air Temp Water Temp Dewpoint Dewpoint Depression Visibility Wind Speed Wind Dir Waves Ship Positions

Danubia

Last reported at 2018-May-28 12:08 UTC. Time now 2018-Jun-23 19:14 UTC.
Position N 29°07' W 094°26'.
Warning: this ship's position is 26 days out of date.

Length 229 m; draft 11.1 m.

Type: Tanker. MMSI: 636090950.

Date/timePositionNaut miles runAvg speedWind from/ knotsBaromVisibWave heightAir tempDewpointWater temp
2018-May-28 12:08N 29°07' W 094°26'111.1
2018-May-28 12:00N 29°08' W 094°26'611.1
2018-May-28 11:29N 29°12' W 094°31'611.0
2018-May-28 10:57N 29°16' W 094°36'510.0
2018-May-28 10:30N 29°19' W 094°39'4 8.2
2018-May-28 10:00N 29°21' W 094°44'4 7.3
2018-May-28 09:30N 29°22' W 094°48'4 7.9
2018-May-28 09:00N 29°25' W 094°50'4 8.8
2018-May-28 08:30N 29°29' W 094°52'5 9.2
2018-May-28 08:00N 29°33' W 094°55'4 8.8
2018-May-28 07:30N 29°37' W 094°57'4 8.4
2018-May-28 06:59N 29°41' W 094°59'3 6.7
2018-May-28 06:30N 29°44' W 095°01'3 6.5
2018-May-28 06:00N 29°46' W 095°04'2 3.1
2018-May-28 05:27N 29°45' W 095°06'0 0.0
2018-May-26 05:30N 29°45' W 095°06'2 4.2
2018-May-26 04:56N 29°44' W 095°03'3 6.3
2018-May-26 04:30N 29°42' W 095°01'4 8.0
2018-May-26 04:00N 29°39' W 094°58'5 9.3
2018-May-26 03:30N 29°35' W 094°56'5 9.3
2018-May-26 03:00N 29°31' W 094°53'4 8.9
2018-May-26 02:30N 29°27' W 094°51'4 8.7
2018-May-26 02:00N 29°23' W 094°49'4 7.5
2018-May-26 01:30N 29°21' W 094°46'4 8.3
2018-May-26 01:00N 29°20' W 094°41'5 9.6
2018-May-26 00:30N 29°18' W 094°36'3 0.7
2018-May-25 20:16N 29°18' W 094°33'0 0.4
2018-May-25 19:58N 29°18' W 094°33'1 2.3
2018-May-25 19:25N 29°17' W 094°32'3 6.3
2018-May-25 19:00N 29°17' W 094°29'1 0.0
2018-May-24 21:24N 29°17' W 094°29'0 0.0
2018-May-24 18:42N 29°17' W 094°29'0 0.1
2018-May-24 18:30N 29°17' W 094°29'0 0.0
2018-May-24 14:12N 29°17' W 094°29'0 0.0
2018-May-24 14:00N 29°17' W 094°29'0 0.0
2018-May-24 01:33N 29°17' W 094°29'0 0.0
2018-May-24 01:15N 29°17' W 094°29'0 0.1
2018-May-24 00:45N 29°17' W 094°29'0 0.0
2018-May-24 00:18N 29°17' W 094°29'0 0.0
2018-May-23 23:45N 29°17' W 094°29'0 0.0
2018-May-23 23:30N 29°17' W 094°29'0 0.0
2018-May-23 20:21N 29°17' W 094°29'0 0.0
2018-May-23 17:06N 29°17' W 094°29'0 0.1
2018-May-23 17:00N 29°17' W 094°29'0 0.0
2018-May-23 04:41N 29°17' W 094°29'2 5.3
2018-May-23 04:15N 29°16' W 094°31'2 8.0
2018-May-23 03:58N 29°14' W 094°30'611.5
2018-May-23 03:28N 29°10' W 094°25'1210.1
2018-May-23 02:18N 29°16' W 094°13'411.1
2018-May-23 01:54N 29°19' W 094°09'411.1
2018-May-23 01:30N 29°22' W 094°05'611.1
2018-May-23 01:00N 29°26' W 094°01'611.1
2018-May-23 00:30N 29°29' W 093°55'611.4
2018-May-23 00:00N 29°30' W 093°49'611.5
2018-May-22 23:30N 29°32' W 093°43'611.5
2018-May-22 23:00N 29°33' W 093°36'611.4
2018-May-22 22:30N 29°34' W 093°30'611.3
2018-May-22 21:58N 29°35' W 093°23'611.1
2018-May-22 21:27N 29°34' W 093°16'  
2018-May-18 16:53N 29°34' W 093°13'0 0.0
2018-May-18 16:02N 29°34' W 093°13'0 0.1
2018-May-18 15:59N 29°34' W 093°13'0 0.0
2018-May-18 12:44N 29°34' W 093°13'0 0.0
2018-May-18 12:29N 29°34' W 093°13'  
Track history (hours):
 
Tides and Currents Weather Stations Pressure Air Temp Water Temp Dewpoint Dewpoint Depression Visibility Wind Speed Wind Dir Waves Ship Positions

Danubia

Last reported at 2018-May-28 12:08 UTC. Time now 2018-Jun-23 19:14 UTC.
Position N 29°07' W 094°26'.
Warning: this ship's position is 26 days out of date.

Length 229 m; draft 11.1 m.

Type: Tanker. MMSI: 636090950.

Date/timePositionNaut miles runAvg speedWind from/ knotsBaromVisibWave heightAir tempDewpointWater temp
2018-May-28 12:08N 29°07' W 094°26'111.1
2018-May-28 12:00N 29°08' W 094°26'611.1
2018-May-28 11:29N 29°12' W 094°31'611.0
2018-May-28 10:57N 29°16' W 094°36'510.0
2018-May-28 10:30N 29°19' W 094°39'4 8.2
2018-May-28 10:00N 29°21' W 094°44'4 7.3
2018-May-28 09:30N 29°22' W 094°48'4 7.9
2018-May-28 09:00N 29°25' W 094°50'4 8.8
2018-May-28 08:30N 29°29' W 094°52'5 9.2
2018-May-28 08:00N 29°33' W 094°55'4 8.8
2018-May-28 07:30N 29°37' W 094°57'4 8.4
2018-May-28 06:59N 29°41' W 094°59'3 6.7
2018-May-28 06:30N 29°44' W 095°01'3 6.5
2018-May-28 06:00N 29°46' W 095°04'2 3.1
2018-May-28 05:27N 29°45' W 095°06'0 0.0
2018-May-26 05:30N 29°45' W 095°06'2 4.2
2018-May-26 04:56N 29°44' W 095°03'3 6.3
2018-May-26 04:30N 29°42' W 095°01'4 8.0
2018-May-26 04:00N 29°39' W 094°58'5 9.3
2018-May-26 03:30N 29°35' W 094°56'5 9.3
2018-May-26 03:00N 29°31' W 094°53'4 8.9
2018-May-26 02:30N 29°27' W 094°51'4 8.7
2018-May-26 02:00N 29°23' W 094°49'4 7.5
2018-May-26 01:30N 29°21' W 094°46'4 8.3
2018-May-26 01:00N 29°20' W 094°41'5 9.6
2018-May-26 00:30N 29°18' W 094°36'3 0.7
2018-May-25 20:16N 29°18' W 094°33'0 0.4
2018-May-25 19:58N 29°18' W 094°33'1 2.3
2018-May-25 19:25N 29°17' W 094°32'3 6.3
2018-May-25 19:00N 29°17' W 094°29'1 0.0
2018-May-24 21:24N 29°17' W 094°29'0 0.0
2018-May-24 18:42N 29°17' W 094°29'0 0.1
2018-May-24 18:30N 29°17' W 094°29'0 0.0
2018-May-24 14:12N 29°17' W 094°29'0 0.0
2018-May-24 14:00N 29°17' W 094°29'0 0.0
2018-May-24 01:33N 29°17' W 094°29'0 0.0
2018-May-24 01:15N 29°17' W 094°29'0 0.1
2018-May-24 00:45N 29°17' W 094°29'0 0.0
2018-May-24 00:18N 29°17' W 094°29'0 0.0
2018-May-23 23:45N 29°17' W 094°29'0 0.0
2018-May-23 23:30N 29°17' W 094°29'0 0.0
2018-May-23 20:21N 29°17' W 094°29'0 0.0
2018-May-23 17:06N 29°17' W 094°29'0 0.1
2018-May-23 17:00N 29°17' W 094°29'0 0.0
2018-May-23 04:41N 29°17' W 094°29'2 5.3
2018-May-23 04:15N 29°16' W 094°31'2 8.0
2018-May-23 03:58N 29°14' W 094°30'611.5
2018-May-23 03:28N 29°10' W 094°25'1210.1
2018-May-23 02:18N 29°16' W 094°13'411.1
2018-May-23 01:54N 29°19' W 094°09'411.1
2018-May-23 01:30N 29°22' W 094°05'611.1
2018-May-23 01:00N 29°26' W 094°01'611.1
2018-May-23 00:30N 29°29' W 093°55'611.4
2018-May-23 00:00N 29°30' W 093°49'611.5
2018-May-22 23:30N 29°32' W 093°43'611.5
2018-May-22 23:00N 29°33' W 093°36'611.4
2018-May-22 22:30N 29°34' W 093°30'611.3
2018-May-22 21:58N 29°35' W 093°23'611.1
2018-May-22 21:27N 29°34' W 093°16'  
2018-May-18 16:53N 29°34' W 093°13'0 0.0
2018-May-18 16:02N 29°34' W 093°13'0 0.1
2018-May-18 15:59N 29°34' W 093°13'0 0.0
2018-May-18 12:44N 29°34' W 093°13'0 0.0
2018-May-18 12:29N 29°34' W 093°13'  

Dump ship's entire track history